Time;durP1;ratioP1;P1;durP2;ratioP2;P2;SDS_P1;SDS_P2;PMS_P1;PMS_P2;Temp;Humidity;BMP_temperature;BMP_pressure;BME280_temperature;BME280_humidity;BME280_pressure;Samples;Min_cycle;Max_cycle;Signal;HPM_P1;HPM_P2
2022/04/27 00:02:30;;;;;;;11.07;5.30;;;;;;;;;;4449698;32;20362;-55
2022/04/27 00:05:12;;;;;;;12.70;5.40;;;;;;;;;;4451671;32;20252;-57
2022/04/27 00:07:46;;;;;;;12.18;4.30;;;;;;;;;;4436501;32;20224;-56
2022/04/27 00:10:20;;;;;;;10.15;3.17;;;;;;;;;;4436742;32;20278;-62
2022/04/27 00:12:59;;;;;;;6.68;3.45;;;;;;;;;;4449068;32;20209;-56
2022/04/27 00:15:42;;;;;;;5.85;3.05;;;;;;;;;;4450191;32;20239;-56
2022/04/27 00:18:52;;;;;;;4.57;3.03;;;;;;;;;;4429762;32;20263;-56
2022/04/27 00:21:53;;;;;;;4.07;2.65;;;;;;;;;;4433124;32;20216;-56
2022/04/27 00:25:02;;;;;;;;;;;;;;;;;;;;;
2022/04/27 00:27:48;;;;;;;7.47;3.55;;;;;;;;;;4418774;32;20841;-57
2022/04/27 00:30:27;;;;;;;;;;;;;;;;;;;;;
2022/04/27 00:33:30;;;;;;;;;;;;;;;;;;;;;
2022/04/27 00:36:54;;;;;;;;;;;;;;;;;;;;;
2022/04/27 00:39:56;;;;;;;4.62;2.30;;;;;;;;;;4384653;32;20246;-56
2022/04/27 00:42:30;;;;;;;3.80;2.03;;;;;;;;;;4413325;32;20225;-56
2022/04/27 00:45:23;;;;;;;2.78;1.87;;;;;;;;;;4408557;32;20334;-55
2022/04/27 00:49:02;;;;;;;3.22;2.00;;;;;;;;;;4420103;32;20292;-55
2022/04/27 00:55:07;;;;;;;6.82;2.97;;;;;;;;;;4394876;32;20324;-55
2022/04/27 00:57:47;;;;;;;3.20;1.87;;;;;;;;;;4417716;32;20717;-56
2022/04/27 01:00:25;;;;;;;3.78;1.90;;;;;;;;;;4419578;32;20205;-55
2022/04/27 01:03:03;;;;;;;2.40;1.87;;;;;;;;;;4417611;32;20261;-54
2022/04/27 01:05:55;;;;;;;4.45;2.12;;;;;;;;;;4431738;32;20484;-54
2022/04/27 01:08:40;;;;;;;2.17;1.27;;;;;;;;;;4417677;32;20386;-54
2022/04/27 01:11:36;;;;;;;3.25;2.03;;;;;;;;;;4427439;32;20347;-54
2022/04/27 01:14:02;;;;;;;3.08;1.55;;;;;;;;;;4415100;32;20293;-54
2022/04/27 01:16:27;;;;;;;3.28;1.60;;;;;;;;;;4429593;32;20677;-54
2022/04/27 01:18:53;;;;;;;2.40;1.62;;;;;;;;;;4429601;32;20391;-54
2022/04/27 01:21:18;;;;;;;2.42;1.65;;;;;;;;;;4416366;32;20328;-54
2022/04/27 01:23:44;;;;;;;7.35;2.00;;;;;;;;;;4428369;32;20810;-53
2022/04/27 01:26:09;;;;;;;4.80;1.87;;;;;;;;;;4428704;32;20277;-54
2022/04/27 01:28:37;;;;;;;1.50;1.30;;;;;;;;;;4428038;32;20314;-53
2022/04/27 01:31:07;;;;;;;1.40;1.12;;;;;;;;;;4429581;32;20271;-54
2022/04/27 01:33:36;;;;;;;5.53;1.95;;;;;;;;;;4428827;32;20258;-54
2022/04/27 01:36:04;;;;;;;2.35;1.35;;;;;;;;;;4425681;32;20221;-55
2022/04/27 01:38:39;;;;;;;2.83;1.27;;;;;;;;;;4415865;32;20380;-54
2022/04/27 01:41:06;;;;;;;12.10;2.37;;;;;;;;;;4414638;32;20244;-53
2022/04/27 01:43:33;;;;;;;4.20;1.80;;;;;;;;;;4408331;32;20256;-53
2022/04/27 01:45:59;;;;;;;2.78;1.25;;;;;;;;;;4405126;32;20816;-52
2022/04/27 01:48:24;;;;;;;2.58;1.17;;;;;;;;;;4415649;32;20324;-52
2022/04/27 01:50:50;;;;;;;2.35;1.70;;;;;;;;;;4408330;32;20292;-53
2022/04/27 01:56:00;;;;;;;4.12;2.30;;;;;;;;;;4416338;32;20615;-53
2022/04/27 01:58:25;;;;;;;2.55;1.80;;;;;;;;;;4412040;32;20225;-53
2022/04/27 02:00:52;;;;;;;3.92;1.83;;;;;;;;;;4416530;32;20272;-53
2022/04/27 02:03:18;;;;;;;2.97;2.00;;;;;;;;;;4415688;32;20221;-53
2022/04/27 02:05:44;;;;;;;11.77;2.10;;;;;;;;;;4415630;32;20394;-54
2022/04/27 02:08:10;;;;;;;3.90;2.10;;;;;;;;;;4415334;32;20229;-53
2022/04/27 02:10:36;;;;;;;2.90;1.80;;;;;;;;;;4416446;32;20299;-54
2022/04/27 02:13:06;;;;;;;2.58;2.00;;;;;;;;;;4415700;32;20557;-54
2022/04/27 02:15:32;;;;;;;4.53;1.65;;;;;;;;;;4408574;32;20664;-54
2022/04/27 02:17:58;;;;;;;3.17;1.67;;;;;;;;;;4415569;32;20232;-53
2022/04/27 02:20:24;;;;;;;9.25;2.35;;;;;;;;;;4415293;32;20202;-53
2022/04/27 02:22:50;;;;;;;6.37;2.35;;;;;;;;;;4414356;32;20667;-53
2022/04/27 02:25:17;;;;;;;4.62;1.83;;;;;;;;;;4415960;32;20209;-54
2022/04/27 02:27:43;;;;;;;8.38;2.28;;;;;;;;;;4414235;32;20224;-53
2022/04/27 02:30:09;;;;;;;4.45;2.30;;;;;;;;;;4415872;32;20441;-55
2022/04/27 02:32:35;;;;;;;4.47;2.30;;;;;;;;;;4415532;32;20308;-55
2022/04/27 02:35:00;;;;;;;3.60;2.17;;;;;;;;;;4415926;32;20291;-53
2022/04/27 02:37:27;;;;;;;5.22;2.20;;;;;;;;;;4401158;32;20880;-55
2022/04/27 02:39:52;;;;;;;4.85;2.42;;;;;;;;;;4415671;32;20243;-54
2022/04/27 02:42:17;;;;;;;5.18;3.08;;;;;;;;;;4415437;32;20649;-55
2022/04/27 02:44:44;;;;;;;4.28;2.65;;;;;;;;;;4414339;32;20226;-55
2022/04/27 02:47:09;;;;;;;4.97;2.70;;;;;;;;;;4415232;32;20306;-55
2022/04/27 02:52:19;;;;;;;5.05;3.03;;;;;;;;;;4415030;32;20290;-54
2022/04/27 02:54:44;;;;;;;11.90;4.47;;;;;;;;;;4412734;32;20286;-54
2022/04/27 02:57:10;;;;;;;5.57;3.55;;;;;;;;;;4409336;32;20379;-54
2022/04/27 02:59:35;;;;;;;9.57;4.18;;;;;;;;;;4415313;32;20296;-54
2022/04/27 03:02:00;;;;;;;9.00;3.53;;;;;;;;;;4414933;32;20233;-55
2022/04/27 03:04:26;;;;;;;10.43;4.18;;;;;;;;;;4401046;32;20233;-56
2022/04/27 03:06:52;;;;;;;10.48;5.03;;;;;;;;;;4403532;32;20683;-55
2022/04/27 03:09:17;;;;;;;12.88;5.03;;;;;;;;;;4415432;32;20225;-55
2022/04/27 03:11:43;;;;;;;11.98;5.12;;;;;;;;;;4414617;32;20206;-55
2022/04/27 03:14:08;;;;;;;8.80;4.32;;;;;;;;;;4414511;32;20394;-55
2022/04/27 03:16:34;;;;;;;13.55;4.30;;;;;;;;;;4414260;32;20205;-55
2022/04/27 03:18:59;;;;;;;8.73;4.53;;;;;;;;;;4400594;32;20260;-55
2022/04/27 03:21:26;;;;;;;9.18;4.80;;;;;;;;;;4400269;32;20327;-54
2022/04/27 03:23:52;;;;;;;12.63;5.05;;;;;;;;;;4415172;32;20719;-54
2022/04/27 03:26:17;;;;;;;8.55;5.57;;;;;;;;;;4415313;32;20237;-55
2022/04/27 03:28:42;;;;;;;10.85;5.25;;;;;;;;;;4408988;32;20562;-55
2022/04/27 03:31:08;;;;;;;9.65;5.40;;;;;;;;;;4405601;32;20371;-55
2022/04/27 03:33:33;;;;;;;13.27;5.28;;;;;;;;;;4414204;32;20229;-56
2022/04/27 03:35:59;;;;;;;9.05;4.30;;;;;;;;;;4418208;32;20562;-55
2022/04/27 03:38:24;;;;;;;6.70;4.00;;;;;;;;;;4404291;32;20250;-54
2022/04/27 03:40:50;;;;;;;10.07;4.03;;;;;;;;;;4399543;32;20308;-55
2022/04/27 03:43:15;;;;;;;5.50;3.28;;;;;;;;;;4401114;32;20736;-55
2022/04/27 03:45:41;;;;;;;6.37;3.78;;;;;;;;;;4402882;32;20399;-55
2022/04/27 03:48:07;;;;;;;5.32;2.78;;;;;;;;;;4403641;32;20614;-56
2022/04/27 03:50:34;;;;;;;13.00;2.83;;;;;;;;;;4412859;32;20301;-54
2022/04/27 03:52:59;;;;;;;4.80;2.77;;;;;;;;;;4397152;32;20311;-54
2022/04/27 03:55:25;;;;;;;10.13;3.97;;;;;;;;;;4394939;32;20251;-55
2022/04/27 03:57:51;;;;;;;10.88;4.05;;;;;;;;;;4400804;32;20252;-55
2022/04/27 04:00:16;;;;;;;8.18;3.87;;;;;;;;;;4403038;32;20352;-55
2022/04/27 04:02:42;;;;;;;10.13;3.47;;;;;;;;;;4396115;32;20348;-54
2022/04/27 04:05:08;;;;;;;11.60;3.97;;;;;;;;;;4388366;32;20329;-54
2022/04/27 04:07:33;;;;;;;11.65;3.65;;;;;;;;;;4402258;32;20229;-55
2022/04/27 04:09:59;;;;;;;11.70;3.85;;;;;;;;;;4402827;32;20334;-54
2022/04/27 04:12:25;;;;;;;12.25;3.85;;;;;;;;;;4404867;32;20253;-54
2022/04/27 04:14:51;;;;;;;6.60;4.28;;;;;;;;;;4401991;32;20302;-54
2022/04/27 04:17:17;;;;;;;12.65;7.32;;;;;;;;;;4401335;32;20230;-54
2022/04/27 04:19:42;;;;;;;16.55;7.20;;;;;;;;;;4393494;32;20243;-53
2022/04/27 04:22:08;;;;;;;12.73;7.65;;;;;;;;;;4400296;32;20659;-54
2022/04/27 04:24:33;;;;;;;14.65;8.57;;;;;;;;;;4394816;32;20682;-53
2022/04/27 04:29:43;;;;;;;30.02;11.63;;;;;;;;;;4401501;32;20232;-53
2022/04/27 04:32:08;;;;;;;12.63;8.47;;;;;;;;;;4395324;32;20386;-53
2022/04/27 04:34:34;;;;;;;20.53;10.60;;;;;;;;;;4402067;32;20335;-52
2022/04/27 04:37:00;;;;;;;15.03;8.37;;;;;;;;;;4401156;32;20230;-53
2022/04/27 04:39:25;;;;;;;17.27;9.53;;;;;;;;;;4386355;32;20225;-54
2022/04/27 04:41:51;;;;;;;20.23;9.25;;;;;;;;;;4388668;32;20448;-54
2022/04/27 04:44:16;;;;;;;11.47;5.47;;;;;;;;;;4399508;32;20253;-54
2022/04/27 04:46:41;;;;;;;9.68;5.68;;;;;;;;;;4396832;32;20214;-53
2022/04/27 04:49:07;;;;;;;8.27;5.20;;;;;;;;;;4392122;32;20355;-54
2022/04/27 04:51:33;;;;;;;14.57;5.25;;;;;;;;;;4387389;32;20289;-54
2022/04/27 04:53:58;;;;;;;12.65;5.75;;;;;;;;;;4394950;32;20864;-55
2022/04/27 04:56:24;;;;;;;12.00;6.13;;;;;;;;;;4401292;32;20292;-53
2022/04/27 04:58:49;;;;;;;10.07;4.50;;;;;;;;;;4393393;32;20233;-52
2022/04/27 05:01:15;;;;;;;19.50;5.23;;;;;;;;;;4386651;32;20288;-53
2022/04/27 05:03:40;;;;;;;11.50;5.17;;;;;;;;;;4389594;32;20342;-55
2022/04/27 05:06:06;;;;;;;11.32;4.37;;;;;;;;;;4392005;32;20673;-53
2022/04/27 05:08:31;;;;;;;7.50;3.80;;;;;;;;;;4401417;32;20229;-53
2022/04/27 05:10:57;;;;;;;8.48;4.43;;;;;;;;;;4401779;32;20590;-54
2022/04/27 05:13:22;;;;;;;10.83;4.47;;;;;;;;;;4401067;32;20279;-54
2022/04/27 05:15:49;;;;;;;14.10;5.83;;;;;;;;;;4393764;32;20671;-54
2022/04/27 05:18:16;;;;;;;11.95;4.57;;;;;;;;;;4395176;32;20262;-53
2022/04/27 05:20:42;;;;;;;10.95;5.65;;;;;;;;;;4399046;32;20345;-53
2022/04/27 05:23:07;;;;;;;16.47;5.57;;;;;;;;;;4399227;32;20225;-53
2022/04/27 05:25:34;;;;;;;14.70;5.20;;;;;;;;;;4399426;32;20588;-52
2022/04/27 05:28:02;;;;;;;11.63;5.50;;;;;;;;;;4388191;32;20259;-53
2022/04/27 05:33:12;;;;;;;9.13;3.70;;;;;;;;;;4396197;32;20247;-54
2022/04/27 05:35:41;;;;;;;9.85;3.37;;;;;;;;;;4399699;32;20288;-55
2022/04/27 05:38:08;;;;;;;8.30;3.60;;;;;;;;;;4399029;32;20253;-53
2022/04/27 05:40:34;;;;;;;7.12;2.70;;;;;;;;;;4399063;32;20289;-54
2022/04/27 05:43:04;;;;;;;7.37;2.80;;;;;;;;;;4399272;32;20657;-54
2022/04/27 05:45:32;;;;;;;4.22;2.60;;;;;;;;;;4399569;32;20189;-53
2022/04/27 05:47:58;;;;;;;5.53;2.55;;;;;;;;;;4396605;32;20534;-54
2022/04/27 05:50:23;;;;;;;4.32;2.45;;;;;;;;;;4385038;32;20339;-55
2022/04/27 05:52:52;;;;;;;4.55;2.15;;;;;;;;;;4400603;32;20345;-54
2022/04/27 05:55:18;;;;;;;6.90;2.22;;;;;;;;;;4400487;32;20292;-54
2022/04/27 05:57:44;;;;;;;7.10;2.60;;;;;;;;;;4398456;32;20874;-54
2022/04/27 06:00:10;;;;;;;8.68;2.85;;;;;;;;;;4385521;32;20316;-53
2022/04/27 06:02:35;;;;;;;6.57;3.10;;;;;;;;;;4393738;32;20248;-53
2022/04/27 06:05:01;;;;;;;6.40;2.17;;;;;;;;;;4400671;32;20301;-53
2022/04/27 06:07:26;;;;;;;11.57;2.45;;;;;;;;;;4385547;32;20627;-53
2022/04/27 06:09:51;;;;;;;5.68;2.90;;;;;;;;;;4385607;32;20244;-53
2022/04/27 06:12:18;;;;;;;7.07;2.17;;;;;;;;;;4385259;32;20275;-53
2022/04/27 06:14:44;;;;;;;3.85;2.45;;;;;;;;;;4384937;32;20213;-53
2022/04/27 06:17:09;;;;;;;3.75;2.40;;;;;;;;;;4388839;32;20339;-55
2022/04/27 06:19:34;;;;;;;15.98;2.80;;;;;;;;;;4399095;32;20582;-54
2022/04/27 06:22:00;;;;;;;6.60;2.45;;;;;;;;;;4400108;32;20234;-53
2022/04/27 06:24:27;;;;;;;3.85;2.45;;;;;;;;;;4385756;32;20288;-53
2022/04/27 06:26:54;;;;;;;5.40;2.65;;;;;;;;;;4384717;32;20221;-54
2022/04/27 06:29:19;;;;;;;9.68;2.58;;;;;;;;;;4395346;32;20296;-53
2022/04/27 06:31:46;;;;;;;10.50;3.35;;;;;;;;;;4400515;32;20196;-53
2022/04/27 06:34:12;;;;;;;7.68;1.87;;;;;;;;;;4400740;32;20233;-53
2022/04/27 06:36:39;;;;;;;10.43;2.20;;;;;;;;;;4399988;32;20649;-54
2022/04/27 06:39:07;;;;;;;4.90;1.95;;;;;;;;;;4400484;32;20237;-54
2022/04/27 06:41:32;;;;;;;9.73;2.17;;;;;;;;;;4400407;32;20762;-54
2022/04/27 06:43:58;;;;;;;4.53;1.80;;;;;;;;;;4400094;32;20317;-54
2022/04/27 06:46:24;;;;;;;8.40;1.87;;;;;;;;;;4399227;32;20301;-53
2022/04/27 06:48:49;;;;;;;32.33;2.95;;;;;;;;;;4385200;32;20234;-53
2022/04/27 06:51:17;;;;;;;6.00;2.08;;;;;;;;;;4385252;32;20791;-53
2022/04/27 06:53:43;;;;;;;3.72;2.05;;;;;;;;;;4384710;32;20638;-52
2022/04/27 06:56:09;;;;;;;5.60;2.28;;;;;;;;;;4384714;32;20346;-53
2022/04/27 06:58:35;;;;;;;13.05;1.90;;;;;;;;;;4391448;32;20697;-53
2022/04/27 07:01:03;;;;;;;5.70;2.50;;;;;;;;;;4399953;32;20340;-54
2022/04/27 07:03:31;;;;;;;5.43;1.80;;;;;;;;;;4390542;32;20320;-54
2022/04/27 07:05:57;;;;;;;7.03;2.17;;;;;;;;;;4390983;32;20244;-53
2022/04/27 07:08:24;;;;;;;2.10;1.48;;;;;;;;;;4410980;32;20306;-54
2022/04/27 07:10:49;;;;;;;10.35;2.37;;;;;;;;;;4402246;32;20345;-53
2022/04/27 07:13:15;;;;;;;5.55;1.40;;;;;;;;;;4402610;32;20523;-53
2022/04/27 07:15:40;;;;;;;5.22;2.08;;;;;;;;;;4403260;32;20357;-54
2022/04/27 07:18:06;;;;;;;5.53;1.90;;;;;;;;;;4402680;32;20320;-53
2022/04/27 07:20:31;;;;;;;1.60;1.50;;;;;;;;;;4390526;32;20314;-55
2022/04/27 07:22:57;;;;;;;4.65;1.85;;;;;;;;;;4394889;32;20610;-53
2022/04/27 07:25:23;;;;;;;5.30;1.98;;;;;;;;;;4402559;32;20265;-53
2022/04/27 07:27:48;;;;;;;5.62;1.62;;;;;;;;;;4401884;32;20340;-54
2022/04/27 07:30:15;;;;;;;2.67;1.62;;;;;;;;;;4402953;32;20224;-54
2022/04/27 07:32:41;;;;;;;4.37;2.10;;;;;;;;;;4402892;32;20233;-53
2022/04/27 07:35:07;;;;;;;12.98;1.80;;;;;;;;;;4402956;32;20253;-53
2022/04/27 07:37:36;;;;;;;2.53;1.27;;;;;;;;;;4402831;32;20233;-54
2022/04/27 07:40:02;;;;;;;3.62;1.92;;;;;;;;;;4402340;32;20277;-54
2022/04/27 07:42:27;;;;;;;6.32;2.08;;;;;;;;;;4402275;32;20355;-54
2022/04/27 07:44:53;;;;;;;3.58;2.35;;;;;;;;;;4401823;32;20271;-54
2022/04/27 07:47:18;;;;;;;7.20;2.55;;;;;;;;;;4400489;32;20238;-54
2022/04/27 07:49:46;;;;;;;10.13;4.20;;;;;;;;;;4402295;32;20228;-54
2022/04/27 07:52:11;;;;;;;5.85;2.35;;;;;;;;;;4401636;32;20241;-54
2022/04/27 07:54:37;;;;;;;15.02;3.72;;;;;;;;;;4401145;32;20221;-54
2022/04/27 07:57:02;;;;;;;11.80;2.83;;;;;;;;;;4402254;32;20202;-54
2022/04/27 07:59:29;;;;;;;5.10;2.40;;;;;;;;;;4389857;32;20641;-54
2022/04/27 08:01:54;;;;;;;7.55;2.25;;;;;;;;;;4390810;32;20563;-53
2022/04/27 08:04:19;;;;;;;3.83;2.37;;;;;;;;;;4387815;32;20228;-53
2022/04/27 08:06:45;;;;;;;5.80;2.70;;;;;;;;;;4397905;32;20229;-53
2022/04/27 08:09:10;;;;;;;7.55;2.62;;;;;;;;;;4401912;32;20229;-53
2022/04/27 08:11:39;;;;;;;4.85;2.35;;;;;;;;;;4402670;32;20290;-54
2022/04/27 08:14:05;;;;;;;4.75;2.40;;;;;;;;;;4402728;32;20225;-53
2022/04/27 08:16:30;;;;;;;5.68;2.62;;;;;;;;;;4392413;32;20221;-54
2022/04/27 08:18:56;;;;;;;3.90;1.70;;;;;;;;;;4402008;32;20642;-53
2022/04/27 08:21:23;;;;;;;4.00;2.28;;;;;;;;;;4400473;32;20713;-54
2022/04/27 08:23:49;;;;;;;5.25;2.97;;;;;;;;;;4401947;32;20707;-54
2022/04/27 08:26:15;;;;;;;6.15;2.70;;;;;;;;;;4401766;32;20244;-53
2022/04/27 08:28:42;;;;;;;10.75;2.47;;;;;;;;;;4401748;32;20225;-53
2022/04/27 08:31:08;;;;;;;10.23;2.75;;;;;;;;;;4401859;32;20280;-53
2022/04/27 08:33:34;;;;;;;4.80;2.78;;;;;;;;;;4401923;32;20606;-54
2022/04/27 08:36:00;;;;;;;10.43;3.28;;;;;;;;;;4402260;32;20679;-55
2022/04/27 08:38:27;;;;;;;10.02;2.47;;;;;;;;;;4401592;32;20229;-53
2022/04/27 08:40:54;;;;;;;11.12;2.12;;;;;;;;;;4402167;32;20210;-54
2022/04/27 08:43:20;;;;;;;7.28;2.40;;;;;;;;;;4401593;32;20320;-54
2022/04/27 08:45:46;;;;;;;3.53;2.25;;;;;;;;;;4401212;32;20206;-54
2022/04/27 08:48:14;;;;;;;6.78;3.22;;;;;;;;;;4401556;32;20663;-53
2022/04/27 08:50:40;;;;;;;5.97;2.90;;;;;;;;;;4401739;32;20307;-54
2022/04/27 08:53:06;;;;;;;24.67;3.08;;;;;;;;;;4401498;32;20255;-53
2022/04/27 08:55:31;;;;;;;6.90;2.65;;;;;;;;;;4402003;32;20502;-54
2022/04/27 08:58:14;;;;;;;4.85;2.80;;;;;;;;;;4401470;32;20267;-54
2022/04/27 09:00:41;;;;;;;11.25;3.05;;;;;;;;;;4401734;32;20699;-54
2022/04/27 09:03:25;;;;;;;10.45;2.97;;;;;;;;;;4401500;32;20226;-54
2022/04/27 09:05:52;;;;;;;5.32;2.90;;;;;;;;;;4394446;32;20245;-53
2022/04/27 09:08:18;;;;;;;4.68;2.17;;;;;;;;;;4384935;32;20229;-54
2022/04/27 09:10:43;;;;;;;4.85;2.67;;;;;;;;;;4385295;32;20285;-54
2022/04/27 09:13:09;;;;;;;6.12;2.47;;;;;;;;;;4385213;32;20583;-54
2022/04/27 09:15:34;;;;;;;11.23;2.85;;;;;;;;;;4385617;32;20229;-54
2022/04/27 09:20:57;;;;;;;17.23;2.65;;;;;;;;;;4401641;32;20220;-55
2022/04/27 09:23:24;;;;;;;6.70;2.95;;;;;;;;;;4391301;32;20321;-55
2022/04/27 09:25:53;;;;;;;11.52;2.80;;;;;;;;;;4385932;32;20700;-54
2022/04/27 09:28:22;;;;;;;10.98;2.83;;;;;;;;;;4386484;32;20255;-54
2022/04/27 09:30:49;;;;;;;6.25;2.17;;;;;;;;;;4386248;32;20514;-55
2022/04/27 09:33:32;;;;;;;9.57;2.53;;;;;;;;;;4385401;32;20354;-54
2022/04/27 09:35:58;;;;;;;7.50;2.67;;;;;;;;;;4391226;32;20305;-54
2022/04/27 09:38:24;;;;;;;3.12;1.92;;;;;;;;;;4401199;32;20255;-54
2022/04/27 09:40:55;;;;;;;8.00;2.90;;;;;;;;;;4401336;32;20280;-56
2022/04/27 09:43:44;;;;;;;8.73;3.15;;;;;;;;;;4401260;32;21088;-55
2022/04/27 09:46:22;;;;;;;4.80;2.00;;;;;;;;;;4401297;32;20306;-54
2022/04/27 09:49:08;;;;;;;4.18;2.03;;;;;;;;;;4401006;32;20229;-54
2022/04/27 09:52:03;;;;;;;7.43;2.50;;;;;;;;;;4401133;32;20244;-54
2022/04/27 09:54:30;;;;;;;6.68;2.55;;;;;;;;;;4397030;32;20943;-55
2022/04/27 09:57:01;;;;;;;13.73;2.72;;;;;;;;;;4401543;32;20243;-55
2022/04/27 09:59:31;;;;;;;6.28;2.75;;;;;;;;;;4400855;32;20779;-54
2022/04/27 10:02:04;;;;;;;11.45;2.20;;;;;;;;;;4400802;32;20363;-52
2022/04/27 10:04:30;;;;;;;6.43;2.08;;;;;;;;;;4397432;32;20590;-54
2022/04/27 10:06:58;;;;;;;12.07;3.28;;;;;;;;;;4397672;32;20257;-55
2022/04/27 10:09:25;;;;;;;6.37;1.80;;;;;;;;;;4388210;32;20311;-54
2022/04/27 10:11:51;;;;;;;5.22;2.00;;;;;;;;;;4385579;32;20210;-55
2022/04/27 10:14:17;;;;;;;4.70;2.05;;;;;;;;;;4395990;32;20308;-53
2022/04/27 10:16:44;;;;;;;3.08;1.75;;;;;;;;;;4400572;32;20237;-54
2022/04/27 10:19:10;;;;;;;9.05;2.70;;;;;;;;;;4400700;32;20327;-53
2022/04/27 10:21:55;;;;;;;8.55;2.50;;;;;;;;;;4400493;32;20351;-54
2022/04/27 10:24:46;;;;;;;7.15;1.90;;;;;;;;;;4383574;32;20676;-53
2022/04/27 10:27:36;;;;;;;2.62;1.37;;;;;;;;;;4385265;32;20283;-53
2022/04/27 10:30:05;;;;;;;7.47;1.90;;;;;;;;;;4385986;32;20182;-54
2022/04/27 10:32:36;;;;;;;6.50;1.58;;;;;;;;;;4385032;32;20218;-53
2022/04/27 10:35:21;;;;;;;6.30;1.98;;;;;;;;;;4385658;32;20669;-54
2022/04/27 10:37:52;;;;;;;8.05;1.95;;;;;;;;;;4400474;32;20283;-54
2022/04/27 10:40:42;;;;;;;5.47;1.70;;;;;;;;;;4400758;32;20209;-54
2022/04/27 10:43:08;;;;;;;3.37;1.45;;;;;;;;;;4397324;32;20210;-53
2022/04/27 10:45:39;;;;;;;12.85;2.87;;;;;;;;;;4388683;32;20241;-54
2022/04/27 10:48:14;;;;;;;5.65;2.70;;;;;;;;;;4388220;32;20258;-55
2022/04/27 10:50:53;;;;;;;3.97;2.00;;;;;;;;;;4388711;32;20241;-56
2022/04/27 10:53:26;;;;;;;5.75;2.15;;;;;;;;;;4388479;32;20320;-55
2022/04/27 10:55:54;;;;;;;5.03;1.65;;;;;;;;;;4402003;32;20252;-54
2022/04/27 10:58:22;;;;;;;3.22;1.85;;;;;;;;;;4403454;32;20300;-54
2022/04/27 11:01:03;;;;;;;8.10;1.92;;;;;;;;;;4404184;32;20276;-53
2022/04/27 11:03:36;;;;;;;2.78;1.83;;;;;;;;;;4403746;32;20229;-53
2022/04/27 11:06:08;;;;;;;5.53;1.95;;;;;;;;;;4389115;32;20210;-54
2022/04/27 11:08:53;;;;;;;2.58;1.37;;;;;;;;;;4388852;32;20780;-55
2022/04/27 11:11:21;;;;;;;3.60;1.90;;;;;;;;;;4403525;32;20230;-54
2022/04/27 11:13:48;;;;;;;10.20;2.03;;;;;;;;;;4403624;32;20222;-54
2022/04/27 11:16:13;;;;;;;5.32;2.12;;;;;;;;;;4404061;32;20319;-56
2022/04/27 11:18:55;;;;;;;10.77;3.65;;;;;;;;;;4402772;32;20663;-54
2022/04/27 11:21:21;;;;;;;8.63;1.92;;;;;;;;;;4403974;32;20204;-55
2022/04/27 11:23:47;;;;;;;3.67;2.15;;;;;;;;;;4390873;32;20260;-54
2022/04/27 11:26:15;;;;;;;7.45;1.98;;;;;;;;;;4388864;32;20215;-53
2022/04/27 11:28:45;;;;;;;7.47;1.60;;;;;;;;;;4388597;32;20255;-54
2022/04/27 11:31:12;;;;;;;7.20;2.15;;;;;;;;;;4388335;32;20206;-54
2022/04/27 11:33:41;;;;;;;6.28;2.12;;;;;;;;;;4388479;32;20263;-54
2022/04/27 11:36:27;;;;;;;4.05;2.08;;;;;;;;;;4394425;32;20214;-54
2022/04/27 11:38:54;;;;;;;6.22;2.03;;;;;;;;;;4403510;32;20255;-54
2022/04/27 11:41:23;;;;;;;4.25;1.50;;;;;;;;;;4403456;32;20254;-54
2022/04/27 11:43:50;;;;;;;5.87;2.47;;;;;;;;;;4396610;32;20330;-53
2022/04/27 11:46:16;;;;;;;8.48;2.08;;;;;;;;;;4388982;32;20226;-54
2022/04/27 11:48:51;;;;;;;4.72;2.30;;;;;;;;;;4388961;32;20226;-54
2022/04/27 11:51:16;;;;;;;6.57;2.03;;;;;;;;;;4396992;32;20666;-54
2022/04/27 11:53:47;;;;;;;11.02;2.80;;;;;;;;;;4403975;32;20227;-53
2022/04/27 11:56:18;;;;;;;7.37;2.60;;;;;;;;;;4403378;32;20218;-54
2022/04/27 11:58:47;;;;;;;5.15;2.05;;;;;;;;;;4403924;32;20229;-54
2022/04/27 12:01:20;;;;;;;6.93;2.50;;;;;;;;;;4403777;32;20256;-55
2022/04/27 12:03:46;;;;;;;5.07;1.95;;;;;;;;;;4393193;32;20621;-55
2022/04/27 12:06:24;;;;;;;8.10;2.35;;;;;;;;;;4395190;32;20289;-55
2022/04/27 12:08:50;;;;;;;2.78;1.60;;;;;;;;;;4403562;32;20331;-55
2022/04/27 12:11:22;;;;;;;5.35;1.62;;;;;;;;;;4403522;32;20277;-55
2022/04/27 12:13:48;;;;;;;15.52;2.08;;;;;;;;;;4403749;32;20263;-53
2022/04/27 12:16:13;;;;;;;3.05;1.50;;;;;;;;;;4403126;32;20284;-53
2022/04/27 12:18:54;;;;;;;3.87;1.48;;;;;;;;;;4403406;32;20363;-51
2022/04/27 12:21:24;;;;;;;5.70;2.28;;;;;;;;;;4403587;32;20302;-54
2022/04/27 12:23:51;;;;;;;6.72;2.15;;;;;;;;;;4390510;32;20238;-54
2022/04/27 12:26:17;;;;;;;12.63;1.77;;;;;;;;;;4387471;32;20222;-54
2022/04/27 12:28:46;;;;;;;10.07;2.08;;;;;;;;;;4388343;32;20414;-54
2022/04/27 12:31:15;;;;;;;7.50;2.08;;;;;;;;;;4387926;32;20566;-54
2022/04/27 12:33:49;;;;;;;3.95;1.95;;;;;;;;;;4388298;32;20280;-54
2022/04/27 12:39:20;;;;;;;7.55;2.42;;;;;;;;;;4400559;32;20301;-54
2022/04/27 12:41:47;;;;;;;9.55;2.67;;;;;;;;;;4387854;32;20281;-54
2022/04/27 12:44:14;;;;;;;4.68;2.12;;;;;;;;;;4387603;32;20328;-54
2022/04/27 12:47:06;;;;;;;14.30;2.28;;;;;;;;;;4390336;32;20206;-55
2022/04/27 12:49:34;;;;;;;3.33;2.28;;;;;;;;;;4402822;32;20194;-55
2022/04/27 12:52:18;;;;;;;6.78;2.47;;;;;;;;;;4402680;32;20280;-55
2022/04/27 12:54:45;;;;;;;15.50;2.60;;;;;;;;;;4402871;32;20232;-55
2022/04/27 12:57:12;;;;;;;10.55;2.42;;;;;;;;;;4401625;32;20574;-55
2022/04/27 12:59:54;;;;;;;10.02;2.78;;;;;;;;;;4402810;32;20225;-55
2022/04/27 13:02:20;;;;;;;9.45;2.83;;;;;;;;;;4393461;32;20244;-55
2022/04/27 13:04:47;;;;;;;5.72;2.55;;;;;;;;;;4403016;32;20288;-55
2022/04/27 13:07:12;;;;;;;6.78;2.50;;;;;;;;;;4400389;32;20282;-56
2022/04/27 13:12:22;;;;;;;6.20;2.47;;;;;;;;;;4403159;32;20235;-56
2022/04/27 13:14:48;;;;;;;6.62;2.17;;;;;;;;;;4403208;32;20304;-57
2022/04/27 13:17:13;;;;;;;7.15;2.30;;;;;;;;;;4402625;32;20401;-56
2022/04/27 13:19:39;;;;;;;14.05;2.42;;;;;;;;;;4402553;32;20817;-56
2022/04/27 13:22:05;;;;;;;13.10;2.95;;;;;;;;;;4400333;32;20210;-54
2022/04/27 13:24:30;;;;;;;14.00;2.65;;;;;;;;;;4387317;32;20617;-55
2022/04/27 13:26:56;;;;;;;9.50;3.25;;;;;;;;;;4386606;32;20390;-55
2022/04/27 13:29:21;;;;;;;12.55;2.78;;;;;;;;;;4387090;32;20190;-55
2022/04/27 13:31:46;;;;;;;5.80;2.17;;;;;;;;;;4387096;32;20251;-55
2022/04/27 13:34:12;;;;;;;8.57;3.62;;;;;;;;;;4387183;32;20692;-53
2022/04/27 13:36:37;;;;;;;7.97;2.37;;;;;;;;;;4396308;32;20210;-55
2022/04/27 13:39:03;;;;;;;11.15;3.05;;;;;;;;;;4402093;32;20256;-56
2022/04/27 13:41:28;;;;;;;9.45;2.03;;;;;;;;;;4402371;32;20331;-56
2022/04/27 13:43:56;;;;;;;7.18;3.25;;;;;;;;;;4401465;32;20335;-55
2022/04/27 13:46:21;;;;;;;8.52;2.40;;;;;;;;;;4402372;32;20214;-55
2022/04/27 13:48:46;;;;;;;9.00;2.72;;;;;;;;;;4402290;32;20605;-56
2022/04/27 13:51:17;;;;;;;12.07;2.62;;;;;;;;;;4402304;32;20573;-57
2022/04/27 13:53:43;;;;;;;5.70;2.62;;;;;;;;;;4402708;32;20244;-56
2022/04/27 13:56:08;;;;;;;8.77;2.30;;;;;;;;;;4402569;32;20289;-55
2022/04/27 13:58:35;;;;;;;4.47;2.03;;;;;;;;;;4401548;32;20340;-55
2022/04/27 14:01:01;;;;;;;8.35;2.67;;;;;;;;;;4402207;32;20667;-55
2022/04/27 14:03:27;;;;;;;9.38;3.30;;;;;;;;;;4391640;32;20305;-56
2022/04/27 14:05:52;;;;;;;22.30;3.83;;;;;;;;;;4392646;32;20260;-56
2022/04/27 14:08:18;;;;;;;8.40;2.45;;;;;;;;;;4400984;32;20226;-57
2022/04/27 14:10:43;;;;;;;5.18;2.03;;;;;;;;;;4400680;32;20304;-57
2022/04/27 14:13:13;;;;;;;6.25;2.25;;;;;;;;;;4401699;32;20316;-56
2022/04/27 14:15:40;;;;;;;6.97;1.80;;;;;;;;;;4401911;32;20281;-55
2022/04/27 14:18:15;;;;;;;7.47;2.22;;;;;;;;;;4399879;32;20295;-55
2022/04/27 14:20:46;;;;;;;6.80;2.20;;;;;;;;;;4401985;32;20279;-55
2022/04/27 14:23:14;;;;;;;3.67;1.62;;;;;;;;;;4400485;32;20657;-55
2022/04/27 14:25:41;;;;;;;5.18;1.83;;;;;;;;;;4400573;32;20251;-55
2022/04/27 14:28:07;;;;;;;7.87;1.40;;;;;;;;;;4400634;32;20275;-55
2022/04/27 14:30:33;;;;;;;5.43;1.80;;;;;;;;;;4400955;32;20287;-56
2022/04/27 14:32:59;;;;;;;6.35;1.95;;;;;;;;;;4390252;32;20397;-55
2022/04/27 14:35:24;;;;;;;3.65;1.75;;;;;;;;;;4387124;32;20315;-55
2022/04/27 14:37:50;;;;;;;5.95;2.00;;;;;;;;;;4400861;32;20213;-55
2022/04/27 14:40:17;;;;;;;11.02;2.40;;;;;;;;;;4401565;32;20217;-55
2022/04/27 14:42:43;;;;;;;7.85;1.95;;;;;;;;;;4401847;32;20296;-55
2022/04/27 14:45:09;;;;;;;4.40;2.08;;;;;;;;;;4400435;32;20810;-55
2022/04/27 14:47:35;;;;;;;6.10;2.37;;;;;;;;;;4401685;32;20699;-55
2022/04/27 14:50:00;;;;;;;4.75;1.70;;;;;;;;;;4402185;32;20272;-57
2022/04/27 14:52:26;;;;;;;10.27;1.95;;;;;;;;;;4401710;32;20345;-56
2022/04/27 14:54:51;;;;;;;9.77;1.83;;;;;;;;;;4401721;32;20341;-56
2022/04/27 14:57:17;;;;;;;6.45;1.58;;;;;;;;;;4401569;32;20214;-55
2022/04/27 14:59:42;;;;;;;6.95;2.10;;;;;;;;;;4401492;32;20283;-58
2022/04/27 15:02:09;;;;;;;3.37;1.60;;;;;;;;;;4400806;32;20221;-56
2022/04/27 15:04:34;;;;;;;10.93;1.67;;;;;;;;;;4387020;32;20194;-56
2022/04/27 15:07:00;;;;;;;5.37;1.60;;;;;;;;;;4386344;32;20217;-55
2022/04/27 15:09:25;;;;;;;3.25;1.60;;;;;;;;;;4397650;32;20300;-56
2022/04/27 15:11:51;;;;;;;12.40;2.37;;;;;;;;;;4386663;32;20225;-56
2022/04/27 15:14:16;;;;;;;8.70;2.03;;;;;;;;;;4386282;32;20633;-57
2022/04/27 15:16:42;;;;;;;7.65;1.92;;;;;;;;;;4387637;32;20214;-55
2022/04/27 15:19:07;;;;;;;3.90;1.40;;;;;;;;;;4401553;32;20290;-55